sensor_id;sensor_type;location;lat;lon;timestamp;pressure;altitude;pressure_sealevel;temperature;humidity
9249;BME280;4660;41.768;26.198;2023-04-25T00:00:05;100306.47;;;13.90;100.00
9249;BME280;4660;41.768;26.198;2023-04-25T00:02:33;100294.75;;;14.05;100.00
9249;BME280;4660;41.768;26.198;2023-04-25T00:05:01;100279.72;;;14.11;100.00
9249;BME280;4660;41.768;26.198;2023-04-25T00:07:27;100290.88;;;14.08;100.00
9249;BME280;4660;41.768;26.198;2023-04-25T00:09:52;100276.50;;;14.16;100.00
9249;BME280;4660;41.768;26.198;2023-04-25T00:12:18;100258.06;;;14.11;100.00
9249;BME280;4660;41.768;26.198;2023-04-25T00:14:43;100268.56;;;14.06;100.00
9249;BME280;4660;41.768;26.198;2023-04-25T00:17:10;100260.47;;;13.98;100.00
9249;BME280;4660;41.768;26.198;2023-04-25T00:19:37;100260.16;;;14.01;100.00
9249;BME280;4660;41.768;26.198;2023-04-25T00:22:03;100263.47;;;14.11;100.00
9249;BME280;4660;41.768;26.198;2023-04-25T00:24:28;100287.19;;;13.93;100.00
9249;BME280;4660;41.768;26.198;2023-04-25T00:26:54;100272.00;;;13.92;100.00
9249;BME280;4660;41.768;26.198;2023-04-25T00:29:19;100256.41;;;14.02;100.00
9249;BME280;4660;41.768;26.198;2023-04-25T00:31:45;100272.09;;;14.15;100.00
9249;BME280;4660;41.768;26.198;2023-04-25T00:34:11;100268.53;;;14.14;100.00
9249;BME280;4660;41.768;26.198;2023-04-25T00:36:37;100252.75;;;14.26;100.00
9249;BME280;4660;41.768;26.198;2023-04-25T00:39:03;100261.53;;;14.36;100.00
9249;BME280;4660;41.768;26.198;2023-04-25T00:41:30;100261.19;;;14.31;100.00
9249;BME280;4660;41.768;26.198;2023-04-25T00:43:56;100266.69;;;14.15;100.00
9249;BME280;4660;41.768;26.198;2023-04-25T00:46:22;100253.25;;;13.90;100.00
9249;BME280;4660;41.768;26.198;2023-04-25T00:48:48;100251.91;;;13.86;100.00
9249;BME280;4660;41.768;26.198;2023-04-25T00:51:16;100248.84;;;13.89;100.00
9249;BME280;4660;41.768;26.198;2023-04-25T00:53:44;100242.59;;;13.89;100.00
9249;BME280;4660;41.768;26.198;2023-04-25T00:56:10;100230.53;;;13.99;100.00
9249;BME280;4660;41.768;26.198;2023-04-25T00:58:37;100223.16;;;13.93;100.00
9249;BME280;4660;41.768;26.198;2023-04-25T01:01:02;100221.13;;;13.95;100.00
9249;BME280;4660;41.768;26.198;2023-04-25T01:03:28;100214.13;;;14.09;100.00
9249;BME280;4660;41.768;26.198;2023-04-25T01:05:55;100204.34;;;14.00;100.00
9249;BME280;4660;41.768;26.198;2023-04-25T01:08:24;100200.66;;;14.01;100.00
9249;BME280;4660;41.768;26.198;2023-04-25T01:10:50;100189.53;;;13.88;100.00
9249;BME280;4660;41.768;26.198;2023-04-25T01:13:16;100189.03;;;13.84;100.00
9249;BME280;4660;41.768;26.198;2023-04-25T01:15:42;100186.03;;;13.79;100.00
9249;BME280;4660;41.768;26.198;2023-04-25T01:18:07;100175.69;;;13.83;100.00
9249;BME280;4660;41.768;26.198;2023-04-25T01:20:33;100164.16;;;13.49;100.00
9249;BME280;4660;41.768;26.198;2023-04-25T01:22:59;100169.63;;;13.17;100.00
9249;BME280;4660;41.768;26.198;2023-04-25T01:25:25;100148.50;;;13.29;100.00
9249;BME280;4660;41.768;26.198;2023-04-25T01:27:51;100142.91;;;13.46;100.00
9249;BME280;4660;41.768;26.198;2023-04-25T01:30:17;100139.22;;;13.31;100.00
9249;BME280;4660;41.768;26.198;2023-04-25T01:32:43;100141.41;;;13.28;100.00
9249;BME280;4660;41.768;26.198;2023-04-25T01:35:11;100141.03;;;13.47;100.00
9249;BME280;4660;41.768;26.198;2023-04-25T01:37:37;100146.91;;;13.59;100.00
9249;BME280;4660;41.768;26.198;2023-04-25T01:40:03;100157.28;;;13.78;100.00
9249;BME280;4660;41.768;26.198;2023-04-25T01:42:34;100173.50;;;13.78;100.00
9249;BME280;4660;41.768;26.198;2023-04-25T01:45:00;100167.78;;;13.81;100.00
9249;BME280;4660;41.768;26.198;2023-04-25T01:47:26;100178.44;;;13.74;100.00
9249;BME280;4660;41.768;26.198;2023-04-25T01:49:52;100166.47;;;13.69;100.00
9249;BME280;4660;41.768;26.198;2023-04-25T01:52:17;100163.69;;;13.46;100.00
9249;BME280;4660;41.768;26.198;2023-04-25T01:54:43;100143.41;;;13.42;100.00
9249;BME280;4660;41.768;26.198;2023-04-25T01:57:11;100150.81;;;13.48;100.00
9249;BME280;4660;41.768;26.198;2023-04-25T01:59:36;100152.22;;;13.19;100.00
9249;BME280;4660;41.768;26.198;2023-04-25T02:02:02;100159.50;;;13.03;100.00
9249;BME280;4660;41.768;26.198;2023-04-25T02:04:32;100158.84;;;13.01;100.00
9249;BME280;4660;41.768;26.198;2023-04-25T02:06:58;100151.91;;;13.06;100.00
9249;BME280;4660;41.768;26.198;2023-04-25T02:09:24;100162.88;;;12.97;100.00
9249;BME280;4660;41.768;26.198;2023-04-25T02:11:50;100167.63;;;13.03;100.00
9249;BME280;4660;41.768;26.198;2023-04-25T02:14:15;100174.00;;;13.18;100.00
9249;BME280;4660;41.768;26.198;2023-04-25T02:16:41;100168.97;;;13.23;100.00
9249;BME280;4660;41.768;26.198;2023-04-25T02:19:09;100161.88;;;13.30;100.00
9249;BME280;4660;41.768;26.198;2023-04-25T02:21:35;100170.28;;;13.27;100.00
9249;BME280;4660;41.768;26.198;2023-04-25T02:24:01;100140.75;;;13.26;100.00
9249;BME280;4660;41.768;26.198;2023-04-25T02:26:26;100163.69;;;13.46;100.00
9249;BME280;4660;41.768;26.198;2023-04-25T02:28:52;100158.31;;;13.30;100.00
9249;BME280;4660;41.768;26.198;2023-04-25T02:31:18;100154.09;;;13.27;100.00
9249;BME280;4660;41.768;26.198;2023-04-25T02:33:43;100151.09;;;13.22;100.00
9249;BME280;4660;41.768;26.198;2023-04-25T02:36:09;100142.63;;;13.17;100.00
9249;BME280;4660;41.768;26.198;2023-04-25T02:38:35;100161.34;;;13.18;100.00
9249;BME280;4660;41.768;26.198;2023-04-25T02:41:01;100154.94;;;13.28;100.00
9249;BME280;4660;41.768;26.198;2023-04-25T02:43:26;100149.97;;;13.47;100.00
9249;BME280;4660;41.768;26.198;2023-04-25T02:45:52;100138.84;;;13.51;100.00
9249;BME280;4660;41.768;26.198;2023-04-25T02:48:17;100131.25;;;13.46;100.00
9249;BME280;4660;41.768;26.198;2023-04-25T02:50:43;100131.03;;;13.56;100.00
9249;BME280;4660;41.768;26.198;2023-04-25T02:53:08;100132.06;;;13.55;100.00
9249;BME280;4660;41.768;26.198;2023-04-25T02:55:34;100131.94;;;13.40;100.00
9249;BME280;4660;41.768;26.198;2023-04-25T02:58:00;100137.19;;;13.33;100.00
9249;BME280;4660;41.768;26.198;2023-04-25T03:00:25;100123.81;;;13.48;100.00
9249;BME280;4660;41.768;26.198;2023-04-25T03:02:51;100131.44;;;13.44;100.00
9249;BME280;4660;41.768;26.198;2023-04-25T03:05:17;100120.66;;;13.36;100.00
9249;BME280;4660;41.768;26.198;2023-04-25T03:07:42;100110.38;;;13.07;100.00
9249;BME280;4660;41.768;26.198;2023-04-25T03:10:10;100112.63;;;12.95;100.00
9249;BME280;4660;41.768;26.198;2023-04-25T03:12:35;100124.44;;;12.86;100.00
9249;BME280;4660;41.768;26.198;2023-04-25T03:15:01;100111.25;;;12.91;100.00
9249;BME280;4660;41.768;26.198;2023-04-25T03:17:27;100112.31;;;12.74;100.00
9249;BME280;4660;41.768;26.198;2023-04-25T03:19:52;100102.19;;;12.68;100.00
9249;BME280;4660;41.768;26.198;2023-04-25T03:22:18;100112.63;;;12.95;100.00
9249;BME280;4660;41.768;26.198;2023-04-25T03:24:43;100092.34;;;13.00;100.00
9249;BME280;4660;41.768;26.198;2023-04-25T03:27:09;100101.13;;;13.02;100.00
9249;BME280;4660;41.768;26.198;2023-04-25T03:29:34;100096.75;;;12.92;100.00
9249;BME280;4660;41.768;26.198;2023-04-25T03:32:00;100091.72;;;12.81;100.00
9249;BME280;4660;41.768;26.198;2023-04-25T03:34:26;100082.63;;;12.58;100.00
9249;BME280;4660;41.768;26.198;2023-04-25T03:36:51;100087.69;;;12.45;100.00
9249;BME280;4660;41.768;26.198;2023-04-25T03:39:17;100081.59;;;12.34;100.00
9249;BME280;4660;41.768;26.198;2023-04-25T03:41:43;100088.69;;;12.35;100.00
9249;BME280;4660;41.768;26.198;2023-04-25T03:44:08;100081.94;;;12.48;100.00
9249;BME280;4660;41.768;26.198;2023-04-25T03:46:34;100090.03;;;12.72;100.00
9249;BME280;4660;41.768;26.198;2023-04-25T03:49:00;100061.34;;;12.71;100.00
9249;BME280;4660;41.768;26.198;2023-04-25T03:51:25;100043.16;;;12.73;100.00
9249;BME280;4660;41.768;26.198;2023-04-25T03:53:51;100052.25;;;12.80;100.00
9249;BME280;4660;41.768;26.198;2023-04-25T03:56:17;100068.38;;;12.97;100.00
9249;BME280;4660;41.768;26.198;2023-04-25T03:58:43;100074.44;;;12.99;100.00
9249;BME280;4660;41.768;26.198;2023-04-25T04:01:09;100092.06;;;12.86;100.00
9249;BME280;4660;41.768;26.198;2023-04-25T04:03:36;100105.03;;;12.83;100.00
9249;BME280;4660;41.768;26.198;2023-04-25T04:06:28;100017.56;;;12.20;100.00
9249;BME280;4660;41.768;26.198;2023-04-25T04:14:19;100033.72;;;12.53;100.00
9249;BME280;4660;41.768;26.198;2023-04-25T04:16:46;100055.94;;;12.87;100.00
9249;BME280;4660;41.768;26.198;2023-04-25T04:21:57;99986.19;;;12.44;100.00
9249;BME280;4660;41.768;26.198;2023-04-25T04:24:56;100113.91;;;13.32;100.00
9249;BME280;4660;41.768;26.198;2023-04-25T04:27:22;99972.03;;;12.42;100.00
9249;BME280;4660;41.768;26.198;2023-04-25T04:30:11;100066.31;;;13.15;100.00
9249;BME280;4660;41.768;26.198;2023-04-25T04:32:45;100074.56;;;13.21;100.00
9249;BME280;4660;41.768;26.198;2023-04-25T04:35:19;100066.16;;;13.16;100.00
9249;BME280;4660;41.768;26.198;2023-04-25T04:37:45;100009.50;;;12.92;100.00
9249;BME280;4660;41.768;26.198;2023-04-25T04:40:14;99983.25;;;12.70;100.00
9249;BME280;4660;41.768;26.198;2023-04-25T04:43:00;100017.19;;;12.72;100.00
9249;BME280;4660;41.768;26.198;2023-04-25T04:45:26;100057.09;;;13.01;100.00
9249;BME280;4660;41.768;26.198;2023-04-25T04:47:53;100015.28;;;12.81;100.00
9249;BME280;4660;41.768;26.198;2023-04-25T04:50:21;100048.41;;;13.14;100.00
9249;BME280;4660;41.768;26.198;2023-04-25T04:53:07;100099.47;;;13.48;100.00
9249;BME280;4660;41.768;26.198;2023-04-25T04:55:37;100021.59;;;13.12;100.00
9249;BME280;4660;41.768;26.198;2023-04-25T04:58:05;100020.03;;;13.26;100.00
9249;BME280;4660;41.768;26.198;2023-04-25T05:00:33;100077.72;;;13.81;100.00
9249;BME280;4660;41.768;26.198;2023-04-25T05:03:10;100026.31;;;13.58;100.00
9249;BME280;4660;41.768;26.198;2023-04-25T05:05:40;100054.56;;;13.78;100.00
9249;BME280;4660;41.768;26.198;2023-04-25T05:08:18;99954.91;;;13.21;100.00
9249;BME280;4660;41.768;26.198;2023-04-25T05:10:51;99976.69;;;13.51;100.00
9249;BME280;4660;41.768;26.198;2023-04-25T05:13:43;100023.56;;;13.89;100.00
9249;BME280;4660;41.768;26.198;2023-04-25T05:16:36;100053.25;;;14.20;100.00
9249;BME280;4660;41.768;26.198;2023-04-25T05:19:25;100080.22;;;14.36;100.00
9249;BME280;4660;41.768;26.198;2023-04-25T05:21:55;100071.53;;;14.18;100.00
9249;BME280;4660;41.768;26.198;2023-04-25T05:24:52;100085.91;;;14.41;100.00
9249;BME280;4660;41.768;26.198;2023-04-25T05:27:44;100095.34;;;14.45;100.00
9249;BME280;4660;41.768;26.198;2023-04-25T05:30:16;100068.69;;;14.34;100.00
9249;BME280;4660;41.768;26.198;2023-04-25T05:32:59;100093.28;;;14.70;100.00
9249;BME280;4660;41.768;26.198;2023-04-25T05:35:28;100072.44;;;14.56;100.00
9249;BME280;4660;41.768;26.198;2023-04-25T05:37:54;100068.53;;;14.58;100.00
9249;BME280;4660;41.768;26.198;2023-04-25T05:40:29;100071.97;;;14.52;100.00
9249;BME280;4660;41.768;26.198;2023-04-25T05:43:37;100103.16;;;14.86;100.00
9249;BME280;4660;41.768;26.198;2023-04-25T05:46:04;100080.88;;;14.76;100.00
9249;BME280;4660;41.768;26.198;2023-04-25T05:48:30;100052.97;;;14.75;100.00
9249;BME280;4660;41.768;26.198;2023-04-25T05:50:57;100083.91;;;14.96;100.00
9249;BME280;4660;41.768;26.198;2023-04-25T05:53:28;100105.16;;;15.22;100.00
9249;BME280;4660;41.768;26.198;2023-04-25T05:55:56;100027.22;;;14.79;100.00
9249;BME280;4660;41.768;26.198;2023-04-25T05:58:26;100076.63;;;15.26;100.00
9249;BME280;4660;41.768;26.198;2023-04-25T06:00:54;100006.84;;;15.13;100.00
9249;BME280;4660;41.768;26.198;2023-04-25T06:03:25;99960.72;;;14.92;100.00
9249;BME280;4660;41.768;26.198;2023-04-25T06:05:52;100045.59;;;15.43;100.00
9249;BME280;4660;41.768;26.198;2023-04-25T06:08:20;100074.09;;;15.68;100.00
9249;BME280;4660;41.768;26.198;2023-04-25T06:10:46;100030.25;;;15.35;100.00
9249;BME280;4660;41.768;26.198;2023-04-25T06:13:13;100078.47;;;15.69;100.00
9249;BME280;4660;41.768;26.198;2023-04-25T06:15:40;100017.66;;;15.28;100.00
9249;BME280;4660;41.768;26.198;2023-04-25T06:18:08;100083.78;;;15.78;100.00
9249;BME280;4660;41.768;26.198;2023-04-25T06:20:40;100019.34;;;15.44;100.00
9249;BME280;4660;41.768;26.198;2023-04-25T06:23:09;100085.06;;;15.96;100.00
9249;BME280;4660;41.768;26.198;2023-04-25T06:26:06;100080.28;;;16.20;100.00
9249;BME280;4660;41.768;26.198;2023-04-25T06:28:42;100066.91;;;16.18;100.00
9249;BME280;4660;41.768;26.198;2023-04-25T06:31:29;100069.28;;;16.28;100.00
9249;BME280;4660;41.768;26.198;2023-04-25T06:34:06;100089.53;;;16.47;100.00
9249;BME280;4660;41.768;26.198;2023-04-25T06:36:54;100066.41;;;16.51;100.00
9249;BME280;4660;41.768;26.198;2023-04-25T06:39:20;100068.56;;;16.62;100.00
9249;BME280;4660;41.768;26.198;2023-04-25T06:41:49;100075.50;;;16.93;100.00
9249;BME280;4660;41.768;26.198;2023-04-25T06:44:16;100080.66;;;17.09;100.00
9249;BME280;4660;41.768;26.198;2023-04-25T06:46:49;100049.25;;;17.06;100.00
9249;BME280;4660;41.768;26.198;2023-04-25T06:49:17;100075.56;;;17.34;100.00
9249;BME280;4660;41.768;26.198;2023-04-25T06:51:52;100068.69;;;17.03;100.00
9249;BME280;4660;41.768;26.198;2023-04-25T06:54:21;100054.59;;;16.87;100.00
9249;BME280;4660;41.768;26.198;2023-04-25T06:56:53;100031.50;;;16.76;100.00
9249;BME280;4660;41.768;26.198;2023-04-25T06:59:20;100037.47;;;16.93;100.00
9249;BME280;4660;41.768;26.198;2023-04-25T07:01:54;99998.53;;;16.86;100.00
9249;BME280;4660;41.768;26.198;2023-04-25T07:04:22;100071.44;;;17.45;100.00
9249;BME280;4660;41.768;26.198;2023-04-25T07:06:59;100079.34;;;17.74;100.00
9249;BME280;4660;41.768;26.198;2023-04-25T07:09:44;100077.09;;;17.98;100.00
9249;BME280;4660;41.768;26.198;2023-04-25T07:12:16;100067.31;;;18.10;100.00
9249;BME280;4660;41.768;26.198;2023-04-25T07:14:42;100068.38;;;18.22;100.00
9249;BME280;4660;41.768;26.198;2023-04-25T07:17:08;100070.25;;;18.28;100.00
9249;BME280;4660;41.768;26.198;2023-04-25T07:19:35;100059.38;;;18.35;100.00
9249;BME280;4660;41.768;26.198;2023-04-25T07:22:03;100063.16;;;18.40;100.00
9249;BME280;4660;41.768;26.198;2023-04-25T07:24:37;100047.25;;;18.51;100.00
9249;BME280;4660;41.768;26.198;2023-04-25T07:27:05;100056.25;;;18.71;100.00
9249;BME280;4660;41.768;26.198;2023-04-25T07:29:34;100052.69;;;18.90;100.00
9249;BME280;4660;41.768;26.198;2023-04-25T07:32:09;100006.16;;;18.85;100.00
9249;BME280;4660;41.768;26.198;2023-04-25T07:35:17;100050.13;;;19.22;100.00
9249;BME280;4660;41.768;26.198;2023-04-25T07:37:43;100046.13;;;19.18;100.00
9249;BME280;4660;41.768;26.198;2023-04-25T07:40:12;100023.56;;;18.78;100.00
9249;BME280;4660;41.768;26.198;2023-04-25T07:42:42;100046.34;;;19.23;100.00
9249;BME280;4660;41.768;26.198;2023-04-25T07:45:08;100039.56;;;19.39;100.00
9249;BME280;4660;41.768;26.198;2023-04-25T07:47:35;100022.38;;;19.32;100.00
9249;BME280;4660;41.768;26.198;2023-04-25T07:50:03;100034.47;;;19.56;100.00
9249;BME280;4660;41.768;26.198;2023-04-25T07:52:30;100036.94;;;19.70;100.00
9249;BME280;4660;41.768;26.198;2023-04-25T07:54:55;100038.22;;;19.68;100.00
9249;BME280;4660;41.768;26.198;2023-04-25T07:57:23;100034.97;;;19.84;100.00
9249;BME280;4660;41.768;26.198;2023-04-25T07:59:51;100031.44;;;19.77;100.00
9249;BME280;4660;41.768;26.198;2023-04-25T08:02:16;100040.59;;;19.96;100.00
9249;BME280;4660;41.768;26.198;2023-04-25T08:04:42;100016.28;;;19.88;100.00
9249;BME280;4660;41.768;26.198;2023-04-25T08:07:07;100029.19;;;20.05;100.00
9249;BME280;4660;41.768;26.198;2023-04-25T08:09:35;100032.00;;;20.55;100.00
9249;BME280;4660;41.768;26.198;2023-04-25T08:12:03;100017.38;;;20.68;100.00
9249;BME280;4660;41.768;26.198;2023-04-25T08:14:31;100018.31;;;20.55;98.67
9249;BME280;4660;41.768;26.198;2023-04-25T08:17:02;100008.44;;;20.29;100.00
9249;BME280;4660;41.768;26.198;2023-04-25T08:19:29;100007.97;;;20.32;100.00
9249;BME280;4660;41.768;26.198;2023-04-25T08:21:58;99980.34;;;20.22;100.00
9249;BME280;4660;41.768;26.198;2023-04-25T08:24:27;100007.16;;;20.32;100.00
9249;BME280;4660;41.768;26.198;2023-04-25T08:26:54;100009.81;;;20.45;100.00
9249;BME280;4660;41.768;26.198;2023-04-25T08:29:20;99999.13;;;20.37;100.00
9249;BME280;4660;41.768;26.198;2023-04-25T08:31:45;99998.72;;;20.33;100.00
9249;BME280;4660;41.768;26.198;2023-04-25T08:34:11;100011.00;;;20.49;100.00
9249;BME280;4660;41.768;26.198;2023-04-25T08:36:37;100013.16;;;20.72;100.00
9249;BME280;4660;41.768;26.198;2023-04-25T08:39:03;99964.91;;;20.59;100.00
9249;BME280;4660;41.768;26.198;2023-04-25T08:41:28;100000.19;;;20.86;100.00
9249;BME280;4660;41.768;26.198;2023-04-25T08:43:56;99989.31;;;20.98;100.00
9249;BME280;4660;41.768;26.198;2023-04-25T08:46:24;100021.31;;;21.15;99.62
9249;BME280;4660;41.768;26.198;2023-04-25T08:49:00;100015.47;;;20.69;100.00
9249;BME280;4660;41.768;26.198;2023-04-25T08:51:26;99998.41;;;20.73;99.67
9249;BME280;4660;41.768;26.198;2023-04-25T08:53:53;100009.44;;;21.03;98.97
9249;BME280;4660;41.768;26.198;2023-04-25T08:56:21;100008.69;;;20.96;98.42
9249;BME280;4660;41.768;26.198;2023-04-25T08:58:51;99979.94;;;20.69;99.96
9249;BME280;4660;41.768;26.198;2023-04-25T09:01:17;99998.53;;;20.60;99.62
9249;BME280;4660;41.768;26.198;2023-04-25T09:03:44;99984.09;;;20.71;97.25
9249;BME280;4660;41.768;26.198;2023-04-25T09:06:13;99951.53;;;20.70;95.44
9249;BME280;4660;41.768;26.198;2023-04-25T09:08:44;99957.09;;;20.81;96.24
9249;BME280;4660;41.768;26.198;2023-04-25T09:11:09;99964.16;;;21.26;94.54
9249;BME280;4660;41.768;26.198;2023-04-25T09:13:36;99979.09;;;21.30;86.85
9249;BME280;4660;41.768;26.198;2023-04-25T09:16:02;99964.63;;;21.23;89.34
9249;BME280;4660;41.768;26.198;2023-04-25T09:18:30;99972.38;;;21.44;87.14
9249;BME280;4660;41.768;26.198;2023-04-25T09:21:05;99957.47;;;21.40;88.43
9249;BME280;4660;41.768;26.198;2023-04-25T09:23:43;99959.84;;;21.36;91.82
9249;BME280;4660;41.768;26.198;2023-04-25T09:26:09;99957.31;;;21.53;90.57
9249;BME280;4660;41.768;26.198;2023-04-25T09:28:35;99968.41;;;21.58;86.93
9249;BME280;4660;41.768;26.198;2023-04-25T09:31:03;99942.63;;;21.48;79.88
9249;BME280;4660;41.768;26.198;2023-04-25T09:33:32;99955.91;;;21.62;82.52
9249;BME280;4660;41.768;26.198;2023-04-25T09:36:10;99952.66;;;21.84;82.35
9249;BME280;4660;41.768;26.198;2023-04-25T09:38:48;99937.47;;;21.69;80.33
9249;BME280;4660;41.768;26.198;2023-04-25T09:41:24;99948.19;;;22.01;79.91
9249;BME280;4660;41.768;26.198;2023-04-25T09:43:50;99952.63;;;22.14;78.95
9249;BME280;4660;41.768;26.198;2023-04-25T09:46:17;99937.81;;;22.03;79.75
9249;BME280;4660;41.768;26.198;2023-04-25T09:48:50;99950.41;;;21.92;83.11
9249;BME280;4660;41.768;26.198;2023-04-25T09:51:16;99935.91;;;21.62;84.62
9249;BME280;4660;41.768;26.198;2023-04-25T09:53:45;99919.59;;;21.55;86.91
9249;BME280;4660;41.768;26.198;2023-04-25T09:56:35;99926.72;;;21.56;85.99
9249;BME280;4660;41.768;26.198;2023-04-25T09:59:03;99919.84;;;21.35;85.82
9249;BME280;4660;41.768;26.198;2023-04-25T10:01:31;99917.34;;;21.64;82.86
9249;BME280;4660;41.768;26.198;2023-04-25T10:03:58;99866.09;;;21.29;80.95
9249;BME280;4660;41.768;26.198;2023-04-25T10:06:27;99900.78;;;21.29;80.21
9249;BME280;4660;41.768;26.198;2023-04-25T10:08:55;99906.53;;;21.69;79.95
9249;BME280;4660;41.768;26.198;2023-04-25T10:11:25;99929.94;;;21.95;76.90
9249;BME280;4660;41.768;26.198;2023-04-25T10:13:53;99927.13;;;22.13;73.59
9249;BME280;4660;41.768;26.198;2023-04-25T10:16:23;99821.91;;;21.67;73.60
9249;BME280;4660;41.768;26.198;2023-04-25T10:18:51;99888.88;;;21.95;73.63
9249;BME280;4660;41.768;26.198;2023-04-25T10:21:19;99908.88;;;21.95;76.29
9249;BME280;4660;41.768;26.198;2023-04-25T10:23:49;99765.84;;;21.16;77.45
9249;BME280;4660;41.768;26.198;2023-04-25T10:26:15;99917.16;;;22.31;75.29
9249;BME280;4660;41.768;26.198;2023-04-25T10:29:02;99807.03;;;21.75;75.09
9249;BME280;4660;41.768;26.198;2023-04-25T10:31:34;99889.50;;;22.09;74.46
9249;BME280;4660;41.768;26.198;2023-04-25T10:34:10;99867.47;;;22.15;78.91
9249;BME280;4660;41.768;26.198;2023-04-25T10:36:36;99894.75;;;22.45;91.69
9249;BME280;4660;41.768;26.198;2023-04-25T10:39:06;99904.88;;;22.33;100.00
9249;BME280;4660;41.768;26.198;2023-04-25T10:41:57;99859.69;;;21.89;100.00
9249;BME280;4660;41.768;26.198;2023-04-25T10:44:27;99904.88;;;22.10;100.00
9249;BME280;4660;41.768;26.198;2023-04-25T10:46:58;99895.91;;;22.14;100.00
9249;BME280;4660;41.768;26.198;2023-04-25T10:49:43;99906.13;;;22.07;100.00
9249;BME280;4660;41.768;26.198;2023-04-25T10:57:47;99915.91;;;21.61;100.00
9249;BME280;4660;41.768;26.198;2023-04-25T11:00:16;99904.41;;;21.41;100.00
9249;BME280;4660;41.768;26.198;2023-04-25T11:02:47;99895.31;;;21.29;99.80
9249;BME280;4660;41.768;26.198;2023-04-25T11:07:55;99873.16;;;21.00;100.00
9249;BME280;4660;41.768;26.198;2023-04-25T11:10:30;99891.69;;;20.98;100.00
9249;BME280;4660;41.768;26.198;2023-04-25T11:12:57;99878.50;;;20.77;100.00
9249;BME280;4660;41.768;26.198;2023-04-25T11:15:24;99885.50;;;20.73;100.00
9249;BME280;4660;41.768;26.198;2023-04-25T11:17:53;99868.00;;;20.37;100.00
9249;BME280;4660;41.768;26.198;2023-04-25T11:20:21;99888.31;;;20.41;100.00
9249;BME280;4660;41.768;26.198;2023-04-25T11:22:47;99876.91;;;20.08;100.00
9249;BME280;4660;41.768;26.198;2023-04-25T11:25:15;99892.53;;;20.19;100.00
9249;BME280;4660;41.768;26.198;2023-04-25T11:28:00;99888.81;;;19.88;100.00
9249;BME280;4660;41.768;26.198;2023-04-25T11:30:28;99904.88;;;19.71;100.00
9249;BME280;4660;41.768;26.198;2023-04-25T11:32:56;99927.81;;;19.19;100.00
9249;BME280;4660;41.768;26.198;2023-04-25T11:35:22;99942.00;;;18.89;100.00
9249;BME280;4660;41.768;26.198;2023-04-25T11:37:48;99938.25;;;18.64;100.00
9249;BME280;4660;41.768;26.198;2023-04-25T11:40:15;99909.41;;;18.10;100.00
9249;BME280;4660;41.768;26.198;2023-04-25T11:42:45;99933.28;;;17.95;100.00
9249;BME280;4660;41.768;26.198;2023-04-25T11:45:12;99947.50;;;17.83;100.00
9249;BME280;4660;41.768;26.198;2023-04-25T11:47:38;99949.50;;;17.55;100.00
9249;BME280;4660;41.768;26.198;2023-04-25T11:50:06;99912.81;;;16.76;100.00
9249;BME280;4660;41.768;26.198;2023-04-25T11:52:50;99968.81;;;16.77;100.00
9249;BME280;4660;41.768;26.198;2023-04-25T11:55:19;99969.31;;;16.60;100.00
9249;BME280;4660;41.768;26.198;2023-04-25T11:57:48;99953.03;;;16.32;100.00
9249;BME280;4660;41.768;26.198;2023-04-25T12:00:20;99943.50;;;15.93;100.00
9249;BME280;4660;41.768;26.198;2023-04-25T12:02:52;99934.88;;;15.83;100.00
9249;BME280;4660;41.768;26.198;2023-04-25T12:05:18;99954.00;;;15.96;100.00
9249;BME280;4660;41.768;26.198;2023-04-25T12:07:46;99949.22;;;15.98;100.00
9249;BME280;4660;41.768;26.198;2023-04-25T12:10:14;99924.28;;;16.09;100.00
9249;BME280;4660;41.768;26.198;2023-04-25T12:12:45;99925.78;;;16.18;100.00
9249;BME280;4660;41.768;26.198;2023-04-25T12:17:38;99917.59;;;16.12;100.00
9249;BME280;4660;41.768;26.198;2023-04-25T12:20:09;99891.66;;;16.31;100.00
9249;BME280;4660;41.768;26.198;2023-04-25T12:22:35;99879.97;;;16.30;100.00
9249;BME280;4660;41.768;26.198;2023-04-25T12:25:02;99882.19;;;16.55;100.00
9249;BME280;4660;41.768;26.198;2023-04-25T12:27:31;99904.56;;;16.98;100.00
9249;BME280;4660;41.768;26.198;2023-04-25T12:29:57;99884.16;;;17.15;100.00
9249;BME280;4660;41.768;26.198;2023-04-25T12:32:24;99879.63;;;17.49;100.00
9249;BME280;4660;41.768;26.198;2023-04-25T12:34:51;99887.22;;;17.73;100.00
9249;BME280;4660;41.768;26.198;2023-04-25T12:37:17;99882.41;;;18.15;100.00
9249;BME280;4660;41.768;26.198;2023-04-25T12:39:42;99870.44;;;18.29;100.00
9249;BME280;4660;41.768;26.198;2023-04-25T12:42:08;99842.81;;;18.19;100.00
9249;BME280;4660;41.768;26.198;2023-04-25T12:44:37;99869.09;;;18.65;100.00
9249;BME280;4660;41.768;26.198;2023-04-25T12:47:03;99856.38;;;19.04;100.00
9249;BME280;4660;41.768;26.198;2023-04-25T12:49:29;99874.69;;;19.28;100.00
9249;BME280;4660;41.768;26.198;2023-04-25T12:51:54;99856.91;;;19.57;100.00
9249;BME280;4660;41.768;26.198;2023-04-25T12:54:20;99828.31;;;19.66;100.00
9249;BME280;4660;41.768;26.198;2023-04-25T12:56:46;99828.88;;;19.75;100.00
9249;BME280;4660;41.768;26.198;2023-04-25T12:59:11;99831.88;;;19.67;100.00
9249;BME280;4660;41.768;26.198;2023-04-25T13:01:37;99830.75;;;19.74;100.00
9249;BME280;4660;41.768;26.198;2023-04-25T13:04:03;99840.91;;;19.67;100.00
9249;BME280;4660;41.768;26.198;2023-04-25T13:06:28;99823.09;;;19.65;100.00
9249;BME280;4660;41.768;26.198;2023-04-25T13:08:55;99818.06;;;19.55;100.00
9249;BME280;4660;41.768;26.198;2023-04-25T13:11:21;99834.00;;;19.65;100.00
9249;BME280;4660;41.768;26.198;2023-04-25T13:13:47;99825.88;;;19.51;100.00
9249;BME280;4660;41.768;26.198;2023-04-25T13:16:13;99819.19;;;19.47;100.00
9249;BME280;4660;41.768;26.198;2023-04-25T13:18:41;99824.81;;;19.52;100.00
9249;BME280;4660;41.768;26.198;2023-04-25T13:21:09;99824.81;;;19.52;100.00
9249;BME280;4660;41.768;26.198;2023-04-25T13:23:37;99822.81;;;19.10;100.00